createdAt,value
2024-02-13T00:01:30.813Z,101418.31
2024-02-13T00:06:33.782Z,101425.81
2024-02-13T00:11:36.435Z,101417.47
2024-02-13T00:16:39.380Z,101418.56
2024-02-13T00:21:41.979Z,101424.06
2024-02-13T00:26:46.028Z,101412.41
2024-02-13T00:31:48.891Z,101403.88
2024-02-13T00:37:11.580Z,101408.91
2024-02-13T00:42:14.296Z,101402.47
2024-02-13T00:47:19.861Z,101401.56
2024-02-13T00:52:22.911Z,101406.47
2024-02-13T00:57:26.158Z,101412.69
2024-02-13T01:02:28.783Z,101397.22
2024-02-13T01:07:35.881Z,101409.00
2024-02-13T01:12:40.528Z,101406.03
2024-02-13T01:17:43.183Z,101414.84
2024-02-13T01:22:45.818Z,101404.41
2024-02-13T01:27:48.767Z,101408.53
2024-02-13T01:32:51.744Z,101408.38
2024-02-13T01:37:54.462Z,101404.41
2024-02-13T01:42:57.980Z,101402.31
2024-02-13T01:48:03.075Z,101402.88
2024-02-13T01:53:06.472Z,101404.97
2024-02-13T01:58:12.510Z,101398.31
2024-02-13T02:03:19.220Z,101407.94
2024-02-13T02:08:21.772Z,101406.66
2024-02-13T02:13:25.479Z,101398.44
2024-02-13T02:18:38.441Z,101397.66
2024-02-13T02:23:41.291Z,101398.06
2024-02-13T02:28:54.397Z,101387.75
2024-02-13T02:33:58.044Z,101382.00
2024-02-13T02:39:00.791Z,101370.16
2024-02-13T02:44:03.537Z,101377.78
2024-02-13T02:49:07.112Z,101370.97
2024-02-13T02:54:09.879Z,101361.38
2024-02-13T02:59:12.436Z,101366.41
2024-02-13T03:04:15.130Z,101366.78
2024-02-13T03:09:17.832Z,101367.72
2024-02-13T03:14:20.385Z,101350.06
2024-02-13T03:19:23.144Z,101360.44
2024-02-13T03:24:26.088Z,101356.50
2024-02-13T03:29:28.864Z,101349.19
2024-02-13T03:34:31.849Z,101354.22
2024-02-13T03:39:35.120Z,101353.16
2024-02-13T03:44:40.585Z,101355.38
2024-02-13T03:49:43.200Z,101360.50
2024-02-13T03:54:46.273Z,101358.38
2024-02-13T03:59:49.033Z,101366.41
2024-02-13T04:04:51.878Z,101369.16
2024-02-13T04:09:54.576Z,101370.38
2024-02-13T04:14:57.566Z,101378.59
2024-02-13T04:20:00.142Z,101374.75
2024-02-13T04:25:02.770Z,101372.06
2024-02-13T04:30:11.741Z,101390.22
2024-02-13T04:35:14.475Z,101385.09
2024-02-13T04:40:17.694Z,101387.22
2024-02-13T04:45:40.225Z,101385.22
2024-02-13T04:50:43.001Z,101398.34
2024-02-13T04:55:46.162Z,101383.22
2024-02-13T05:01:06.975Z,101381.00
2024-02-13T05:06:29.441Z,101380.50
2024-02-13T05:11:32.591Z,101363.84
2024-02-13T05:16:35.493Z,101358.84
2024-02-13T05:21:38.170Z,101365.16
2024-02-13T05:26:40.878Z,101384.00
2024-02-13T05:31:43.797Z,101383.53
2024-02-13T05:36:47.655Z,101388.00
2024-02-13T05:41:50.343Z,101389.47
2024-02-13T05:46:53.080Z,101379.97
2024-02-13T05:51:56.740Z,101380.53
2024-02-13T05:56:59.297Z,101370.31
2024-02-13T06:02:01.888Z,101376.00
2024-02-13T06:07:06.873Z,101377.31
2024-02-13T06:12:10.232Z,101372.22
2024-02-13T06:17:13.364Z,101371.75
2024-02-13T06:22:16.093Z,101378.25
2024-02-13T06:27:18.730Z,101371.28
2024-02-13T06:32:21.429Z,101369.75
2024-02-13T06:37:24.680Z,101345.69
2024-02-13T06:42:27.317Z,101349.25
2024-02-13T06:47:30.212Z,101352.19
2024-02-13T06:52:32.731Z,101362.28
2024-02-13T06:57:37.826Z,101360.06
2024-02-13T07:02:41.361Z,101365.69
2024-02-13T07:07:47.712Z,101359.63
2024-02-13T07:12:51.390Z,101351.34
2024-02-13T07:18:00.225Z,101343.50
2024-02-13T07:23:05.154Z,101350.56
2024-02-13T07:28:07.861Z,101346.75
2024-02-13T07:33:10.714Z,101348.41
2024-02-13T07:38:13.751Z,101352.00
2024-02-13T07:43:17.076Z,101354.44
2024-02-13T07:48:20.129Z,101351.44
2024-02-13T07:53:22.861Z,101346.75
2024-02-13T07:58:25.457Z,101344.28
2024-02-13T08:03:28.032Z,101348.53
2024-02-13T08:08:31.372Z,101339.78
2024-02-13T08:13:35.124Z,101339.13
2024-02-13T08:18:38.398Z,101333.00
2024-02-13T08:23:41.028Z,101334.06
2024-02-13T08:28:45.322Z,101335.50
2024-02-13T08:33:48.398Z,101316.47
2024-02-13T08:38:52.393Z,101306.22
2024-02-13T08:43:55.560Z,101304.94
2024-02-13T08:48:58.338Z,101298.25
2024-02-13T08:54:01.317Z,101289.56
2024-02-13T08:59:06.092Z,101286.75
2024-02-13T09:04:08.837Z,101282.31
2024-02-13T09:09:13.340Z,101276.53
2024-02-13T09:14:16.350Z,101263.53
2024-02-13T09:19:19.307Z,101268.16
2024-02-13T09:24:24.516Z,101266.72
2024-02-13T09:29:27.251Z,101257.56
2024-02-13T09:34:30.214Z,101260.59
2024-02-13T09:39:32.768Z,101253.00
2024-02-13T09:44:35.653Z,101246.97
2024-02-13T09:49:44.531Z,101247.63
2024-02-13T09:54:49.776Z,101244.22
2024-02-13T09:59:52.769Z,101248.94
2024-02-13T10:04:55.752Z,101243.56
2024-02-13T10:10:00.074Z,101246.84
2024-02-13T10:15:02.622Z,101243.28
2024-02-13T10:20:11.927Z,101229.69
2024-02-13T10:25:25.524Z,101238.44
2024-02-13T10:30:31.453Z,101225.84
2024-02-13T10:35:35.095Z,101219.00
2024-02-13T10:40:41.086Z,101211.34
2024-02-13T10:45:48.621Z,101214.56
2024-02-13T10:50:59.454Z,101217.31
2024-02-13T10:56:04.287Z,101212.47
2024-02-13T11:01:09.044Z,101202.44
2024-02-13T11:06:12.421Z,101203.63
2024-02-13T11:11:17.383Z,101200.16
2024-02-13T11:16:23.751Z,101189.09
2024-02-13T11:21:47.813Z,101198.53
2024-02-13T11:27:29.734Z,101180.13
2024-02-13T11:32:38.832Z,101198.50
2024-02-13T11:37:43.452Z,101201.34
2024-02-13T11:42:46.419Z,101185.75
2024-02-13T11:47:50.994Z,101197.69
2024-02-13T11:52:54.233Z,101198.88
2024-02-13T11:57:56.851Z,101187.19
2024-02-13T12:02:59.740Z,101200.16
2024-02-13T12:08:02.430Z,101210.31
2024-02-13T12:13:08.149Z,101206.25
2024-02-13T12:18:13.592Z,101209.28
2024-02-13T12:23:17.663Z,101208.19
2024-02-13T12:28:24.890Z,101208.97
2024-02-13T12:33:27.885Z,101199.50
2024-02-13T12:38:31.923Z,101205.38
2024-02-13T12:43:35.464Z,101214.34
2024-02-13T12:48:40.874Z,101212.13
2024-02-13T12:53:48.037Z,101198.47
2024-02-13T12:58:53.795Z,101211.59
2024-02-13T13:03:58.988Z,101202.84
2024-02-13T13:09:16.142Z,101212.50
2024-02-13T13:14:29.378Z,101213.13
2024-02-13T13:19:35.461Z,101200.31
2024-02-13T13:24:40.199Z,101202.00
2024-02-13T13:29:43.927Z,101196.78
2024-02-13T13:34:50.355Z,101202.72
2024-02-13T13:39:56.835Z,101203.28
2024-02-13T13:45:02.994Z,101211.78
2024-02-13T13:50:10.343Z,101228.97
2024-02-13T13:55:13.129Z,101238.28
2024-02-13T14:00:22.424Z,101234.50
2024-02-13T14:05:25.502Z,101247.84
2024-02-13T14:10:28.246Z,101250.78
2024-02-13T14:15:32.954Z,101252.41
2024-02-13T14:20:39.107Z,101245.03
2024-02-13T14:25:42.188Z,101253.88
2024-02-13T14:30:45.208Z,101251.13
2024-02-13T14:35:49.170Z,101265.59
2024-02-13T14:40:58.627Z,101261.50
2024-02-13T14:46:04.109Z,101261.25
2024-02-13T14:51:07.752Z,101278.59
2024-02-13T14:56:14.896Z,101279.69
2024-02-13T15:01:18.761Z,101280.84
2024-02-13T15:06:24.794Z,101295.22
2024-02-13T15:11:32.871Z,101296.78
2024-02-13T15:16:36.949Z,101301.53
2024-02-13T15:21:44.605Z,101315.41
2024-02-13T15:26:50.419Z,101323.78
2024-02-13T15:31:53.779Z,101333.84
2024-02-13T15:37:05.159Z,101340.00
2024-02-13T15:42:26.752Z,101342.25
2024-02-13T15:47:32.957Z,101361.00
2024-02-13T15:52:36.448Z,101341.97
2024-02-13T15:57:40.073Z,101343.66
2024-02-13T16:02:46.336Z,101333.03
2024-02-13T16:07:49.184Z,101337.66
2024-02-13T16:12:52.063Z,101345.88
2024-02-13T16:17:55.511Z,101348.38
2024-02-13T16:22:58.939Z,101341.16
2024-02-13T16:28:05.210Z,101340.00
2024-02-13T16:33:09.340Z,101332.47
2024-02-13T16:38:12.424Z,101331.09
2024-02-13T16:43:15.081Z,101321.03
2024-02-13T16:48:19.992Z,101318.91
2024-02-13T16:53:23.754Z,101313.72
2024-02-13T16:58:26.560Z,101326.34
2024-02-13T17:03:29.369Z,101335.59
2024-02-13T17:08:32.562Z,101330.91
2024-02-13T17:13:36.068Z,101336.81
2024-02-13T17:18:38.884Z,101353.72
2024-02-13T17:23:41.560Z,101344.06
2024-02-13T17:28:44.158Z,101357.03
2024-02-13T17:33:46.954Z,101350.56
2024-02-13T17:38:50.744Z,101337.41
2024-02-13T17:43:55.537Z,101334.03
2024-02-13T17:48:59.659Z,101338.09
2024-02-13T17:54:02.769Z,101320.34
2024-02-13T17:59:05.793Z,101334.88
2024-02-13T18:04:10.842Z,101329.38
2024-02-13T18:09:13.624Z,101333.75
2024-02-13T18:14:17.571Z,101327.31
2024-02-13T18:19:20.794Z,101332.63
2024-02-13T18:24:23.942Z,101336.13
2024-02-13T18:29:27.472Z,101333.75
2024-02-13T18:34:30.418Z,101322.31
2024-02-13T18:39:35.251Z,101309.69
2024-02-13T18:44:38.378Z,101311.91
2024-02-13T18:49:41.143Z,101306.75
2024-02-13T18:54:46.071Z,101310.06
2024-02-13T18:59:49.008Z,101314.94
2024-02-13T19:04:51.706Z,101314.56
2024-02-13T19:09:54.518Z,101312.44
2024-02-13T19:14:57.114Z,101309.38
2024-02-13T19:20:00.889Z,101303.47
2024-02-13T19:25:06.449Z,101302.41
2024-02-13T19:30:12.587Z,101296.63
2024-02-13T19:35:32.771Z,101295.94
2024-02-13T19:40:35.338Z,101285.31
2024-02-13T19:45:44.102Z,101288.69
2024-02-13T19:51:07.759Z,101301.00
2024-02-13T19:56:30.395Z,101297.66
2024-02-13T20:01:52.886Z,101307.31
2024-02-13T20:07:15.914Z,101305.53
2024-02-13T20:12:21.494Z,101302.75
2024-02-13T20:17:23.984Z,101307.91
2024-02-13T20:22:26.586Z,101309.09
2024-02-13T20:27:29.208Z,101312.13
2024-02-13T20:32:31.816Z,101314.22
2024-02-13T20:37:35.024Z,101321.16
2024-02-13T20:42:43.562Z,101330.28
2024-02-13T20:47:46.366Z,101343.09
2024-02-13T20:52:49.021Z,101345.59
2024-02-13T20:57:56.872Z,101339.97
2024-02-13T21:03:00.506Z,101360.69
2024-02-13T21:08:03.340Z,101368.00
2024-02-13T21:13:06.953Z,101366.81
2024-02-13T21:18:10.341Z,101371.31
2024-02-13T21:23:31.783Z,101376.13
2024-02-13T21:28:34.616Z,101379.28
2024-02-13T21:33:37.668Z,101372.94
2024-02-13T21:38:40.335Z,101373.78
2024-02-13T21:43:43.174Z,101377.28
2024-02-13T21:48:45.979Z,101375.53
2024-02-13T21:53:49.513Z,101351.75
2024-02-13T21:58:52.260Z,101350.63
2024-02-13T22:03:56.928Z,101354.44
2024-02-13T22:08:59.612Z,101349.09
2024-02-13T22:14:02.341Z,101354.66
2024-02-13T22:19:05.254Z,101352.91
2024-02-13T22:24:08.168Z,101344.78
2024-02-13T22:29:14.127Z,101333.84
2024-02-13T22:34:16.953Z,101336.91
2024-02-13T22:39:19.565Z,101334.25
2024-02-13T22:44:24.596Z,101337.59
2024-02-13T22:49:27.663Z,101352.13
2024-02-13T22:54:30.311Z,101343.94
2024-02-13T22:59:35.747Z,101341.69
2024-02-13T23:04:41.273Z,101357.50
2024-02-13T23:09:43.800Z,101345.78
2024-02-13T23:14:46.382Z,101361.31
2024-02-13T23:19:49.655Z,101361.84
2024-02-13T23:24:52.236Z,101361.22
2024-02-13T23:29:54.769Z,101371.00
2024-02-13T23:34:57.486Z,101371.50
2024-02-13T23:40:00.298Z,101365.38
2024-02-13T23:45:03.130Z,101359.81
2024-02-13T23:50:08.616Z,101352.63
2024-02-13T23:55:11.899Z,101373.63
